Time;durP1;ratioP1;P1;durP2;ratioP2;P2;SDS_P1;SDS_P2;PMS_P1;PMS_P2;Temp;Humidity;BMP_temperature;BMP_pressure;BME280_temperature;BME280_humidity;BME280_pressure;Samples;Min_cycle;Max_cycle;Signal;HPM_P1;HPM_P2
2022/05/15 00:00:37;;;;;;;6.80;3.25;;;;;;;15.46;57.09;100186.97;4464610;32;33953;-56
2022/05/15 00:03:12;;;;;;;6.32;2.92;;;;;;;15.27;56.84;100186.37;4462140;32;33488;-56
2022/05/15 00:05:41;;;;;;;5.10;3.10;;;;;;;15.20;57.03;100188.72;4464694;32;33933;-57
2022/05/15 00:08:10;;;;;;;4.40;2.60;;;;;;;14.00;59.85;100194.97;4450693;32;34576;-57
2022/05/15 00:10:40;;;;;;;5.85;2.72;;;;;;;13.55;61.84;100191.56;4462551;32;33855;-57
2022/05/15 00:13:09;;;;;;;6.18;3.00;;;;;;;13.62;61.34;100197.00;4462997;32;33387;-57
2022/05/15 00:15:37;;;;;;;6.47;3.42;;;;;;;13.56;61.31;100193.34;4465398;32;33832;-57
2022/05/15 00:18:06;;;;;;;5.28;2.80;;;;;;;13.78;60.47;100186.37;4462280;32;33804;-58
2022/05/15 00:20:34;;;;;;;7.03;3.20;;;;;;;13.73;60.72;100190.50;4438747;32;33399;-56
2022/05/15 00:23:02;;;;;;;5.65;2.60;;;;;;;14.03;59.76;100184.69;4450798;32;33547;-57
2022/05/15 00:25:30;;;;;;;6.28;2.72;;;;;;;13.86;59.90;100195.34;4440766;32;34930;-57
2022/05/15 00:27:58;;;;;;;5.65;3.03;;;;;;;14.51;58.33;100184.69;4464378;32;33829;-57
2022/05/15 00:30:26;;;;;;;5.90;2.70;;;;;;;15.03;56.81;100191.69;4451325;32;32790;-57
2022/05/15 00:32:54;;;;;;;5.53;2.67;;;;;;;14.81;57.17;100189.19;4450176;32;33630;-58
2022/05/15 00:35:21;;;;;;;8.55;2.87;;;;;;;15.51;55.73;100186.28;4463843;32;33699;-57
2022/05/15 00:37:50;;;;;;;6.32;2.80;;;;;;;15.51;55.24;100186.28;4437008;32;32202;-58
2022/05/15 00:40:19;;;;;;;6.07;2.92;;;;;;;15.19;56.38;100181.75;4448207;32;33651;-58
2022/05/15 00:42:47;;;;;;;8.30;3.03;;;;;;;14.70;57.52;100176.69;4454682;32;33217;-58
2022/05/15 00:45:18;;;;;;;6.40;3.20;;;;;;;14.74;57.22;100183.78;4453445;32;34453;-57
2022/05/15 00:47:46;;;;;;;5.43;3.30;;;;;;;14.45;58.08;100185.34;4437465;32;32235;-57
2022/05/15 00:50:21;;;;;;;4.87;3.03;;;;;;;15.01;56.40;100184.62;4452694;32;33830;-57
2022/05/15 00:52:51;;;;;;;7.78;3.22;;;;;;;14.54;58.01;100185.69;4450953;32;33468;-57
2022/05/15 00:55:27;;;;;;;4.68;3.20;;;;;;;14.35;58.53;100183.22;4437258;32;88993;-57
2022/05/15 00:57:59;;;;;;;4.78;3.15;;;;;;;14.16;59.51;100176.50;4441787;32;34905;-57
2022/05/15 01:00:29;;;;;;;5.80;3.22;;;;;;;14.02;59.99;100181.16;4438471;32;34125;-57
2022/05/15 01:03:26;;;;;;;6.80;3.70;;;;;;;14.01;60.17;100178.53;4437974;32;35232;-57
2022/05/15 01:05:55;;;;;;;5.47;3.25;;;;;;;13.85;61.07;100177.97;4442169;32;33910;-57
2022/05/15 01:08:27;;;;;;;5.68;3.25;;;;;;;13.77;61.76;100174.16;4453505;32;33877;-57
2022/05/15 01:11:01;;;;;;;5.12;3.25;;;;;;;13.36;63.49;100166.53;4451009;32;32266;-57
2022/05/15 01:13:31;;;;;;;5.72;3.47;;;;;;;13.22;64.06;100174.59;4453310;32;33469;-57
2022/05/15 01:16:00;;;;;;;7.40;3.50;;;;;;;13.52;62.91;100170.66;4439277;32;32664;-57
2022/05/15 01:18:32;;;;;;;6.65;3.30;;;;;;;13.31;63.50;100164.59;4439310;32;34793;-57
2022/05/15 01:21:02;;;;;;;6.25;3.90;;;;;;;13.29;63.71;100172.31;4446504;32;33937;-56
2022/05/15 01:23:30;;;;;;;5.90;3.70;;;;;;;13.50;62.91;100167.09;4451602;32;34346;-57
2022/05/15 01:25:58;;;;;;;6.53;3.00;;;;;;;13.41;63.04;100171.94;4437658;32;33824;-57
2022/05/15 01:28:27;;;;;;;6.20;3.55;;;;;;;13.80;61.77;100170.81;4437430;32;33909;-57
2022/05/15 01:30:57;;;;;;;5.72;3.40;;;;;;;13.37;63.18;100165.72;4437671;32;33284;-57
2022/05/15 01:33:25;;;;;;;8.15;3.80;;;;;;;13.62;62.57;100173.56;4451862;32;33336;-57
2022/05/15 01:35:52;;;;;;;7.85;3.85;;;;;;;13.04;64.74;100170.44;4452550;32;34786;-56
2022/05/15 01:38:20;;;;;;;5.45;3.20;;;;;;;13.11;64.46;100172.44;4465755;32;33993;-57
2022/05/15 01:40:50;;;;;;;6.68;3.33;;;;;;;13.25;63.73;100174.72;4468223;32;33950;-57
2022/05/15 01:43:18;;;;;;;9.68;3.47;;;;;;;13.37;63.05;100175.25;4467387;32;33060;-57
2022/05/15 01:45:46;;;;;;;7.30;3.40;;;;;;;13.47;62.95;100176.50;4466138;32;34653;-57
2022/05/15 01:48:13;;;;;;;7.75;3.72;;;;;;;13.25;63.74;100182.50;4454092;32;32378;-57
2022/05/15 01:50:42;;;;;;;8.30;3.85;;;;;;;13.00;64.71;100181.53;4468980;32;33933;-57
2022/05/15 01:53:10;;;;;;;7.57;3.47;;;;;;;13.23;64.19;100186.75;4453751;32;31751;-57
2022/05/15 01:55:37;;;;;;;6.30;3.78;;;;;;;13.10;64.46;100181.09;4465591;32;34657;-57
2022/05/15 01:58:09;;;;;;;8.07;3.80;;;;;;;13.24;63.73;100178.16;4441313;32;34048;-57
2022/05/15 02:00:38;;;;;;;5.78;3.45;;;;;;;13.16;64.09;100186.53;4468384;32;34543;-57
2022/05/15 02:03:06;;;;;;;7.35;3.85;;;;;;;13.43;63.26;100180.69;4468711;26;33492;-80
2022/05/15 02:05:33;;;;;;;7.00;3.60;;;;;;;13.41;63.43;100184.94;4452767;32;33162;-80
2022/05/15 02:08:01;;;;;;;9.00;3.75;;;;;;;13.34;63.75;100180.31;4449704;32;33883;-80
2022/05/15 02:10:29;;;;;;;6.10;3.62;;;;;;;13.22;63.91;100182.41;4449652;32;34045;-80
2022/05/15 02:12:57;;;;;;;5.87;3.58;;;;;;;13.55;62.72;100186.34;4442910;32;33342;-80
2022/05/15 02:15:24;;;;;;;7.10;3.87;;;;;;;13.28;63.32;100186.13;4449090;32;33584;-80
2022/05/15 02:17:52;;;;;;;8.57;3.85;;;;;;;13.37;63.04;100185.66;4448135;32;33241;-80
2022/05/15 02:20:20;;;;;;;7.05;3.83;;;;;;;13.13;63.57;100181.22;4452784;32;34070;-80
2022/05/15 02:22:47;;;;;;;7.37;4.18;;;;;;;13.18;63.24;100179.66;4452216;32;33876;-80
2022/05/15 02:25:15;;;;;;;6.93;3.78;;;;;;;13.02;64.21;100177.28;4435479;32;33024;-80
2022/05/15 02:27:46;;;;;;;9.15;4.22;;;;;;;12.76;65.20;100184.88;4450513;32;33829;-80
2022/05/15 02:30:15;;;;;;;6.35;3.58;;;;;;;12.57;66.51;100187.53;4435925;32;33563;-80
2022/05/15 02:32:44;;;;;;;8.30;3.92;;;;;;;12.62;66.58;100180.81;4450072;32;32540;-80
2022/05/15 02:35:12;;;;;;;10.65;3.97;;;;;;;13.12;64.88;100187.22;4451454;32;35012;-80
2022/05/15 02:37:41;;;;;;;6.78;3.83;;;;;;;13.87;62.71;100191.94;4425728;32;33256;-80
2022/05/15 02:40:10;;;;;;;6.62;3.62;;;;;;;13.69;62.49;100188.59;4434925;32;33712;-80
2022/05/15 02:42:38;;;;;;;8.68;4.15;;;;;;;13.33;63.31;100189.84;4436682;32;33176;-80
2022/05/15 02:45:06;;;;;;;6.47;4.25;;;;;;;13.39;63.81;100198.72;4432468;32;33510;-80
2022/05/15 02:47:34;;;;;;;6.40;3.20;;;;;;;13.93;61.96;100197.34;4432998;32;33769;-80
2022/05/15 02:52:53;;;;;;;8.30;4.25;;;;;;;13.33;63.84;100204.56;4425387;32;33431;-79
2022/05/15 02:55:23;;;;;;;8.27;3.90;;;;;;;13.26;64.82;100202.50;4435596;32;33009;-80
2022/05/15 02:57:51;;;;;;;9.20;4.07;;;;;;;13.08;65.37;100203.53;4431619;32;33729;-80
2022/05/15 03:00:22;;;;;;;6.43;3.72;;;;;;;13.42;64.39;100214.44;4420659;32;32371;-80
2022/05/15 03:02:50;;;;;;;7.70;3.65;;;;;;;14.35;61.56;100206.69;4435761;32;33700;-80
2022/05/15 03:05:19;;;;;;;6.15;3.78;;;;;;;14.46;61.20;100204.47;4432080;32;34568;-80
2022/05/15 03:07:47;;;;;;;8.70;3.75;;;;;;;14.80;60.07;100198.75;4426423;32;34037;-80
2022/05/15 03:10:17;;;;;;;5.32;3.40;;;;;;;14.96;59.23;100201.88;4419348;32;32236;-80
2022/05/15 03:12:46;;;;;;;6.65;3.25;;;;;;;15.52;56.49;100206.28;4434797;32;33014;-80
2022/05/15 03:15:14;;;;;;;7.60;3.33;;;;;;;15.24;57.34;100198.44;4431779;32;34571;-80
2022/05/15 03:17:43;;;;;;;5.45;3.17;;;;;;;15.52;55.33;100203.69;4427849;32;33807;-80
2022/05/15 03:20:12;;;;;;;6.60;2.80;;;;;;;13.42;61.50;100202.31;4433709;32;34201;-80
2022/05/15 03:22:40;;;;;;;5.25;3.60;;;;;;;13.21;63.11;100214.44;4425608;32;32510;-80
2022/05/15 03:25:09;;;;;;;6.30;3.50;;;;;;;13.10;62.99;100219.22;4431448;32;34221;-80
2022/05/15 03:27:37;;;;;;;6.07;3.55;;;;;;;12.75;64.46;100214.31;4433629;32;33432;-80
2022/05/15 03:30:05;;;;;;;5.75;3.33;;;;;;;12.82;64.76;100219.75;4430440;32;34589;-80
2022/05/15 03:32:33;;;;;;;8.15;4.35;;;;;;;12.85;64.90;100219.91;4430881;32;33391;-80
2022/05/15 03:35:01;;;;;;;6.90;4.10;;;;;;;12.77;65.58;100222.19;4431447;32;33898;-80
2022/05/15 03:37:28;;;;;;;7.07;4.03;;;;;;;12.68;66.53;100220.06;4431119;32;34570;-79
2022/05/15 03:39:56;;;;;;;27.37;5.60;;;;;;;13.02;65.59;100224.09;4434768;32;34642;-80
2022/05/15 03:42:24;;;;;;;10.50;4.90;;;;;;;13.32;64.64;100226.19;4435321;32;33057;-80
2022/05/15 03:44:53;;;;;;;7.28;4.75;;;;;;;12.79;66.69;100225.72;4433492;32;33988;-80
2022/05/15 03:47:21;;;;;;;7.35;4.50;;;;;;;12.26;68.99;100227.75;4435522;32;34513;-80
2022/05/15 03:49:48;;;;;;;7.53;4.82;;;;;;;11.93;71.10;100233.19;4435329;32;34167;-80
2022/05/15 03:52:17;;;;;;;7.32;4.70;;;;;;;11.81;71.83;100227.41;4434222;32;33384;-80
2022/05/15 03:54:46;;;;;;;9.48;4.90;;;;;;;12.23;70.16;100235.41;4430450;32;33770;-80
2022/05/15 03:57:14;;;;;;;7.55;4.40;;;;;;;12.58;68.69;100231.78;4433901;32;34638;-80
2022/05/15 03:59:42;;;;;;;7.80;4.80;;;;;;;12.62;68.39;100230.19;4417015;32;32501;-80
2022/05/15 04:02:10;;;;;;;5.82;3.78;;;;;;;12.94;67.30;100235.88;4432111;32;33175;-80
2022/05/15 04:04:39;;;;;;;7.53;4.55;;;;;;;13.39;65.84;100246.44;4432167;32;33792;-80
2022/05/15 04:07:12;;;;;;;8.57;4.82;;;;;;;13.25;66.22;100237.13;4434467;32;34033;-80
2022/05/15 04:09:42;;;;;;;5.90;4.40;;;;;;;12.70;67.69;100247.00;4434830;32;33175;-80
2022/05/15 04:12:11;;;;;;;8.32;4.70;;;;;;;12.54;68.77;100244.56;4422487;32;33277;-80
2022/05/15 04:14:39;;;;;;;6.47;4.72;;;;;;;12.38;70.41;100249.09;4419333;32;34324;-80
2022/05/15 04:17:07;;;;;;;9.25;4.97;;;;;;;12.62;69.38;100253.59;4433986;32;33447;-80
2022/05/15 04:19:35;;;;;;;6.78;4.60;;;;;;;12.69;68.67;100245.25;4422259;32;34193;-79
2022/05/15 04:22:05;;;;;;;9.27;3.70;;;;;;;12.64;69.41;100251.94;4433395;32;33509;-80
2022/05/15 04:24:33;;;;;;;6.62;3.70;;;;;;;12.47;69.18;100255.50;4431879;32;34233;-80
2022/05/15 04:27:02;;;;;;;8.07;3.78;;;;;;;12.86;67.92;100260.66;4432417;32;33976;-80
2022/05/15 04:29:30;;;;;;;5.97;3.25;;;;;;;12.46;69.17;100261.50;4432988;32;34123;-80
2022/05/15 04:31:57;;;;;;;7.93;3.83;;;;;;;14.03;64.46;100257.63;4432999;32;33712;-80
2022/05/15 04:34:27;;;;;;;6.53;3.12;;;;;;;14.32;61.93;100259.59;4433859;32;34574;-79
2022/05/15 04:36:55;;;;;;;9.98;3.05;;;;;;;12.82;66.11;100261.34;4433994;32;33947;-80
2022/05/15 04:39:23;;;;;;;6.18;2.65;;;;;;;12.88;66.36;100261.63;4436204;32;34838;-79
2022/05/15 04:41:50;;;;;;;6.97;3.47;;;;;;;13.10;65.79;100256.50;4434071;32;34462;-80
2022/05/15 04:44:18;;;;;;;5.80;3.20;;;;;;;13.07;66.53;100263.28;4434256;32;33974;-80
2022/05/15 04:46:46;;;;;;;6.35;3.53;;;;;;;13.17;66.78;100268.94;4430280;32;33586;-80
2022/05/15 04:49:13;;;;;;;7.75;3.70;;;;;;;13.32;66.69;100275.63;4428797;32;33330;-80
2022/05/15 04:51:41;;;;;;;6.28;3.67;;;;;;;13.30;67.15;100267.75;4434588;32;34300;-80
2022/05/15 04:54:08;;;;;;;6.70;3.45;;;;;;;13.29;67.38;100270.25;4433573;32;33575;-79
2022/05/15 04:56:36;;;;;;;5.82;3.62;;;;;;;13.26;67.42;100264.94;4416441;32;33812;-80
2022/05/15 04:59:04;;;;;;;7.97;3.45;;;;;;;13.42;67.33;100267.37;4432296;32;34792;-80
2022/05/15 05:01:31;;;;;;;6.12;3.50;;;;;;;13.90;65.88;100266.66;4431772;32;33679;-80
2022/05/15 05:03:59;;;;;;;6.78;3.50;;;;;;;14.21;64.81;100279.12;4428798;32;34272;-80
2022/05/15 05:06:28;;;;;;;7.60;3.60;;;;;;;14.22;65.11;100275.72;4434712;32;33121;-80
2022/05/15 05:08:56;;;;;;;6.25;3.55;;;;;;;14.56;64.00;100287.38;4419764;32;33300;-80
2022/05/15 05:11:23;;;;;;;5.40;3.55;;;;;;;14.62;64.00;100281.53;4432408;32;33202;-80
2022/05/15 05:13:51;;;;;;;7.65;3.30;;;;;;;14.68;63.93;100277.44;4435711;32;34580;-80
2022/05/15 05:16:19;;;;;;;8.05;3.75;;;;;;;14.65;64.36;100272.09;4435542;32;33526;-80
2022/05/15 05:18:47;;;;;;;7.45;3.72;;;;;;;14.71;64.65;100281.88;4421052;32;33986;-80
2022/05/15 05:21:15;;;;;;;5.87;3.20;;;;;;;14.98;64.05;100275.84;4430296;32;34035;-80
2022/05/15 05:23:43;;;;;;;6.53;3.25;;;;;;;14.99;62.80;100275.91;4434710;32;33635;-80
2022/05/15 05:26:10;;;;;;;6.00;3.30;;;;;;;14.87;63.33;100280.69;4432823;32;33768;-80
2022/05/15 05:28:38;;;;;;;6.05;2.90;;;;;;;15.62;62.18;100277.09;4433991;32;33716;-80
2022/05/15 05:31:06;;;;;;;6.72;3.53;;;;;;;15.75;61.18;100279.28;4421078;32;33627;-80
2022/05/15 05:33:33;;;;;;;5.53;3.05;;;;;;;15.97;61.00;100286.06;4432818;32;33759;-80
2022/05/15 05:36:01;;;;;;;6.37;3.30;;;;;;;16.09;59.77;100285.56;4434818;32;33926;-80
2022/05/15 05:38:34;;;;;;;5.72;3.28;;;;;;;16.54;59.43;100279.91;4429910;32;34730;-80
2022/05/15 05:41:02;;;;;;;8.40;3.20;;;;;;;17.35;56.99;100277.72;4429951;32;33234;-80
2022/05/15 05:43:30;;;;;;;6.32;3.20;;;;;;;17.61;56.08;100280.97;4432114;32;33764;-80
2022/05/15 05:45:58;;;;;;;5.10;3.15;;;;;;;17.61;56.12;100281.84;4431652;32;33542;-80
2022/05/15 05:48:26;;;;;;;7.75;3.20;;;;;;;16.43;59.09;100286.56;4416725;32;34161;-80
2022/05/15 05:50:53;;;;;;;8.32;3.50;;;;;;;16.30;59.25;100280.97;4413042;32;35235;-80
2022/05/15 05:53:21;;;;;;;5.87;3.37;;;;;;;17.19;58.28;100282.56;4431099;32;33737;-81
2022/05/15 05:55:49;;;;;;;5.50;3.10;;;;;;;17.42;57.15;100280.53;4416867;32;34506;-80
2022/05/15 05:58:16;;;;;;;4.82;2.70;;;;;;;18.44;53.61;100285.44;4418742;32;33893;-80
2022/05/15 06:00:44;;;;;;;4.03;2.37;;;;;;;18.75;52.06;100272.94;4432482;32;33337;-81
2022/05/15 06:05:58;;;;;;;5.05;2.55;;;;;;;17.83;52.50;100283.25;4428838;32;33520;-80
2022/05/15 06:08:28;;;;;;;5.70;2.83;;;;;;;18.28;52.45;100282.50;4429532;32;32112;-80
2022/05/15 06:10:56;;;;;;;5.50;2.30;;;;;;;19.01;49.10;100276.09;4431416;32;33382;-80
2022/05/15 06:13:23;;;;;;;4.15;2.53;;;;;;;18.32;49.26;100287.84;4431435;32;33936;-80
2022/05/15 06:15:52;;;;;;;4.15;2.45;;;;;;;19.44;47.06;100279.44;4430480;32;33789;-80
2022/05/15 06:18:20;;;;;;;4.37;1.90;;;;;;;19.18;47.55;100281.63;4425981;32;34842;-80
2022/05/15 06:20:47;;;;;;;6.00;2.55;;;;;;;18.32;49.48;100282.59;4430286;32;33522;-81
2022/05/15 06:23:15;;;;;;;6.75;2.37;;;;;;;18.34;50.66;100291.37;4417246;32;34302;-80
2022/05/15 06:25:44;;;;;;;5.85;2.30;;;;;;;18.55;49.90;100286.56;4432193;32;34594;-80
2022/05/15 06:28:11;;;;;;;7.12;2.10;;;;;;;18.98;48.96;100281.28;4434281;32;33421;-80
2022/05/15 06:30:39;;;;;;;8.27;2.05;;;;;;;18.96;48.99;100278.63;4430048;32;33556;-80
2022/05/15 06:33:07;;;;;;;4.22;2.05;;;;;;;18.81;48.92;100283.59;4433437;32;34023;-81
2022/05/15 06:35:35;;;;;;;6.87;2.10;;;;;;;19.10;48.48;100280.63;4434146;32;33881;-80
2022/05/15 06:38:04;;;;;;;5.43;1.92;;;;;;;19.43;46.43;100283.84;4433972;32;33879;-80
2022/05/15 06:40:32;;;;;;;4.93;2.10;;;;;;;19.38;47.83;100285.50;4430588;32;34338;-80
2022/05/15 06:42:59;;;;;;;6.32;1.92;;;;;;;19.58;47.89;100284.94;4419429;32;34661;-80
2022/05/15 06:45:28;;;;;;;4.43;1.70;;;;;;;19.81;43.75;100280.06;4430558;32;34509;-80
2022/05/15 06:47:55;;;;;;;6.53;1.92;;;;;;;19.70;42.73;100282.50;4431417;32;33911;-80
2022/05/15 06:50:24;;;;;;;5.62;2.20;;;;;;;20.44;42.79;100280.91;4428390;32;34341;-80
2022/05/15 06:52:51;;;;;;;6.05;1.80;;;;;;;21.26;42.18;100277.41;4432460;32;34415;-80
2022/05/15 06:55:21;;;;;;;3.40;1.77;;;;;;;21.50;40.30;100275.88;4418225;32;33345;-81
2022/05/15 06:57:50;;;;;;;5.47;1.92;;;;;;;21.08;38.69;100275.50;4432073;32;34089;-80
2022/05/15 07:00:23;;;;;;;5.35;1.60;;;;;;;21.19;39.42;100275.63;4430203;32;33637;-80
2022/05/15 07:02:51;;;;;;;3.50;1.55;;;;;;;22.21;39.18;100278.97;4429489;32;34840;-81
2022/05/15 07:05:25;;;;;;;5.93;2.08;;;;;;;22.50;36.88;100271.22;4429645;32;33850;-80
2022/05/15 07:07:53;;;;;;;3.28;1.50;;;;;;;22.87;36.72;100266.94;4416813;32;33877;-81
2022/05/15 07:10:22;;;;;;;2.62;1.33;;;;;;;21.63;36.93;100271.59;4408403;32;33648;-81
2022/05/15 07:12:50;;;;;;;2.78;1.33;;;;;;;21.39;37.93;100281.91;4433588;32;34036;-81
2022/05/15 07:15:17;;;;;;;5.15;1.58;;;;;;;22.91;32.28;100270.47;4432584;32;34660;-81
2022/05/15 07:17:45;;;;;;;4.50;1.62;;;;;;;22.30;36.22;100279.06;4431795;32;33777;-82
2022/05/15 07:20:13;;;;;;;5.87;1.70;;;;;;;21.78;36.74;100280.47;4426237;32;33576;-82
2022/05/15 07:22:41;;;;;;;6.53;1.60;;;;;;;22.31;38.12;100270.25;4432154;32;34052;-80
2022/05/15 07:25:10;;;;;;;4.95;1.55;;;;;;;22.97;35.32;100273.12;4434008;32;33895;-81
2022/05/15 07:27:38;;;;;;;4.22;1.70;;;;;;;23.16;35.85;100276.69;4433653;32;33812;-81
2022/05/15 07:30:06;;;;;;;10.32;1.92;;;;;;;23.80;32.52;100270.53;4435778;32;34032;-82
2022/05/15 07:32:34;;;;;;;6.70;1.70;;;;;;;23.68;34.24;100270.50;4420186;32;33740;-82
2022/05/15 07:35:01;;;;;;;4.32;1.52;;;;;;;23.22;36.69;100273.16;4418411;32;34033;-83
2022/05/15 07:37:29;;;;;;;6.07;1.80;;;;;;;23.69;35.89;100264.34;4433138;32;34704;-84
2022/05/15 07:39:56;;;;;;;9.30;1.83;;;;;;;23.39;36.23;100265.22;4420903;32;33426;-82
2022/05/15 07:42:24;;;;;;;6.40;1.98;;;;;;;22.44;37.88;100272.06;4433878;32;32427;-82
2022/05/15 07:44:54;;;;;;;5.53;1.85;;;;;;;22.57;36.66;100273.88;4425477;32;34668;-82
2022/05/15 07:47:22;;;;;;;5.28;1.87;;;;;;;22.93;36.74;100271.34;4435869;32;33213;-82
2022/05/15 07:49:50;;;;;;;5.82;1.55;;;;;;;22.93;35.76;100266.94;4436846;32;33677;-82
2022/05/15 07:52:18;;;;;;;3.47;1.50;;;;;;;22.94;36.73;100263.41;4436290;32;33598;-81
2022/05/15 07:54:46;;;;;;;4.60;1.67;;;;;;;23.20;35.50;100267.87;4422410;32;33634;-81
2022/05/15 07:57:13;;;;;;;4.62;1.92;;;;;;;23.02;34.58;100271.34;4420883;32;34088;-81
2022/05/15 07:59:42;;;;;;;4.82;1.70;;;;;;;23.34;35.52;100263.47;4430935;32;32099;-82
2022/05/15 08:02:11;;;;;;;6.62;1.67;;;;;;;23.66;33.83;100265.22;4434831;32;33937;-82
2022/05/15 08:10:13;;;;;;;5.50;1.50;;;;;;;23.87;33.89;100263.44;4421885;32;34711;-82
2022/05/15 08:12:41;;;;;;;5.53;1.40;;;;;;;23.82;31.54;100260.81;4432338;32;33807;-80
2022/05/15 08:15:09;;;;;;;5.70;1.40;;;;;;;23.41;32.40;100258.19;4430466;32;33877;-81
2022/05/15 08:17:36;;;;;;;4.10;1.70;;;;;;;23.73;32.20;100260.81;4433476;32;33899;-82
2022/05/15 08:25:42;;;;;;;7.18;1.80;;;;;;;23.68;31.95;100255.53;4433353;32;33963;-82
2022/05/15 08:28:10;;;;;;;3.83;1.30;;;;;;;24.95;32.75;100247.97;4434328;32;33824;-82
2022/05/15 08:30:37;;;;;;;3.15;1.48;;;;;;;24.66;30.77;100254.34;4431824;32;34376;-82
2022/05/15 08:33:07;;;;;;;5.18;1.50;;;;;;;24.70;31.18;100263.16;4430813;32;33674;-82
2022/05/15 08:35:35;;;;;;;5.55;1.50;;;;;;;24.19;31.01;100257.19;4434418;32;33116;-82
2022/05/15 08:38:03;;;;;;;2.05;1.20;;;;;;;25.13;29.46;100260.25;4434305;32;33895;-82
2022/05/15 08:40:39;;;;;;;3.17;1.25;;;;;;;25.78;29.30;100268.50;4421437;32;33534;-81
2022/05/15 08:43:09;;;;;;;3.42;1.33;;;;;;;26.71;27.51;100257.72;4420114;32;34498;-82
2022/05/15 08:45:42;;;;;;;4.50;1.25;;;;;;;26.84;25.76;100259.31;4417715;32;33602;-83
2022/05/15 08:48:12;;;;;;;3.60;1.37;;;;;;;26.21;27.70;100256.56;4416627;32;34076;-82
2022/05/15 08:50:45;;;;;;;2.28;1.30;;;;;;;25.88;27.98;100259.59;4433242;32;33431;-82
2022/05/15 08:53:40;;;;;;;2.43;1.20;;;;;;;27.19;26.22;100254.34;4418591;32;35712;-82
2022/05/15 08:56:10;;;;;;;3.65;1.27;;;;;;;27.39;25.98;100248.72;4418244;32;33704;-82
2022/05/15 08:58:58;;;;;;;3.10;1.10;;;;;;;27.36;26.46;100252.31;4434014;32;33965;-82
2022/05/15 09:01:29;;;;;;;5.47;1.55;;;;;;;26.86;26.31;100254.84;4430760;32;34999;-83
2022/05/15 09:03:58;;;;;;;5.50;1.20;;;;;;;27.01;26.97;100244.88;4433276;32;33903;-82
2022/05/15 09:06:40;;;;;;;3.50;1.55;;;;;;;26.54;28.00;100249.06;4436177;32;33483;-82
2022/05/15 09:09:31;;;;;;;7.05;1.35;;;;;;;27.07;27.32;100250.09;4434392;32;34141;-82
2022/05/15 09:12:18;;;;;;;3.75;1.40;;;;;;;24.84;28.18;100245.41;4435128;32;33744;-82
2022/05/15 09:15:00;;;;;;;5.43;1.40;;;;;;;26.38;26.19;100254.59;4417826;32;33991;-82
2022/05/15 09:17:43;;;;;;;3.90;1.67;;;;;;;26.43;27.07;100252.75;4422454;32;33855;-82
2022/05/15 09:20:29;;;;;;;3.15;1.35;;;;;;;26.49;27.79;100251.81;4435814;32;34749;-82
2022/05/15 09:23:02;;;;;;;6.72;1.92;;;;;;;26.76;27.21;100245.25;4422478;32;33682;-82
2022/05/15 09:25:34;;;;;;;5.43;1.85;;;;;;;26.98;26.29;100239.59;4415445;32;33855;-81
2022/05/15 09:28:03;;;;;;;7.97;2.10;;;;;;;26.85;26.93;100242.47;4432516;32;34827;-81
2022/05/15 09:30:51;;;;;;;8.43;1.77;;;;;;;27.32;27.34;100247.09;4427821;32;33823;-80
2022/05/15 09:33:27;;;;;;;3.95;1.20;;;;;;;27.41;26.58;100244.25;4431871;32;33743;-80
2022/05/15 09:36:23;;;;;;;3.25;1.42;;;;;;;26.39;27.17;100245.72;4426988;32;33657;-80
2022/05/15 09:39:26;;;;;;;5.25;1.50;;;;;;;26.54;28.12;100243.75;4428013;32;33841;-81
2022/05/15 09:45:36;;;;;;;3.62;1.45;;;;;;;27.41;26.20;100238.91;4382756;32;33704;-81
2022/05/15 09:48:06;;;;;;;6.28;1.30;;;;;;;28.01;25.58;100241.41;4428271;32;33975;-82
2022/05/15 09:50:50;;;;;;;4.12;1.40;;;;;;;28.08;25.59;100236.81;4429864;32;33433;-82
2022/05/15 09:53:23;;;;;;;4.80;1.67;;;;;;;27.09;27.93;100240.31;4413318;32;33963;-83
2022/05/15 09:56:01;;;;;;;8.33;1.93;;;;;;;27.55;27.39;100241.38;4414012;32;33430;-82
2022/05/15 09:58:45;;;;;;;6.18;1.73;;;;;;;27.57;26.53;100240.41;4419317;32;32437;-83
2022/05/15 10:01:21;;;;;;;4.05;1.48;;;;;;;26.88;27.53;100239.75;4403649;32;33802;-83
2022/05/15 10:03:57;;;;;;;7.43;1.73;;;;;;;26.76;27.67;100239.94;4433516;32;34392;-80
2022/05/15 10:06:28;;;;;;;6.43;2.20;;;;;;;26.05;27.27;100245.25;4416469;32;33075;-82
2022/05/15 10:09:11;;;;;;;38.42;5.55;;;;;;;26.96;26.78;100230.78;4428655;32;33905;-81
2022/05/15 10:11:47;;;;;;;6.03;2.20;;;;;;;27.49;27.15;100237.03;4429267;32;34088;-81
2022/05/15 10:14:21;;;;;;;4.30;1.42;;;;;;;27.62;25.74;100238.56;4417971;32;33570;-81
2022/05/15 10:16:53;;;;;;;18.52;3.83;;;;;;;27.79;25.24;100234.69;4421034;32;31663;-81
2022/05/15 10:19:24;;;;;;;12.52;2.72;;;;;;;27.59;25.30;100230.63;4415262;32;34454;-81
2022/05/15 10:21:58;;;;;;;5.85;1.52;;;;;;;27.11;26.05;100230.53;4422511;32;32581;-81
2022/05/15 10:24:27;;;;;;;;;;;;;;;27.56;25.30;100233.31;4420645;32;34402;-81
2022/05/15 10:27:15;;;;;;;3.87;1.85;;;;;;;27.34;25.61;100226.66;4402275;32;33480;-81
2022/05/15 10:30:04;;;;;;;6.03;1.50;;;;;;;26.21;26.49;100224.72;4419812;32;34665;-81
2022/05/15 10:32:41;;;;;;;4.45;1.30;;;;;;;27.01;26.33;100223.63;4411257;32;33977;-80
2022/05/15 10:35:13;;;;;;;4.68;1.33;;;;;;;27.63;25.79;100227.00;4405328;32;33380;-81
2022/05/15 10:38:03;;;;;;;6.68;1.70;;;;;;;27.76;25.25;100221.47;4419334;32;32452;-82
2022/05/15 10:40:46;;;;;;;5.95;1.37;;;;;;;27.87;24.20;100219.44;4407404;32;32139;-81
2022/05/15 10:43:36;;;;;;;4.47;2.60;;;;;;;27.77;24.99;100220.53;4398667;32;32441;-82
2022/05/15 10:46:15;;;;;;;3.67;1.40;;;;;;;27.23;25.08;100219.69;4436168;32;34180;-82
2022/05/15 10:49:04;;;;;;;6.03;1.30;;;;;;;27.85;24.82;100219.50;4410901;32;33986;-82
2022/05/15 10:51:47;;;;;;;9.85;1.60;;;;;;;27.37;23.96;100206.22;4415855;32;31081;-81
2022/05/15 10:57:37;;;;;;;5.55;1.40;;;;;;;28.55;25.80;100200.31;4434266;32;33738;-81
2022/05/15 11:00:19;;;;;;;5.37;1.70;;;;;;;27.82;24.30;100203.56;4408239;32;33666;-82
2022/05/15 11:03:07;;;;;;;6.03;1.60;;;;;;;27.20;26.33;100203.78;4435596;32;33883;-82
2022/05/15 11:05:56;;;;;;;16.25;2.55;;;;;;;27.70;26.12;100198.50;4428908;32;34603;-81
2022/05/15 11:08:38;;;;;;;6.18;1.60;;;;;;;27.25;25.52;100198.41;4428159;32;34882;-81
2022/05/15 11:11:39;;;;;;;7.62;1.70;;;;;;;27.40;24.74;100194.62;4400985;32;33013;-82
2022/05/15 11:14:28;;;;;;;3.00;1.20;;;;;;;28.40;24.80;100196.19;4427081;32;33979;-82
2022/05/15 11:17:12;;;;;;;5.32;1.30;;;;;;;28.54;22.70;100192.34;4430242;32;34713;-81
2022/05/15 11:19:43;;;;;;;3.90;1.10;;;;;;;28.27;22.72;100188.50;4405012;32;34648;-81
2022/05/15 11:22:26;;;;;;;4.35;1.50;;;;;;;28.00;22.74;100190.81;4415549;32;33115;-81
2022/05/15 11:25:09;;;;;;;5.60;1.70;;;;;;;28.16;24.71;100184.28;4410938;32;33611;-83
2022/05/15 11:27:54;;;;;;;4.00;1.50;;;;;;;28.39;24.58;100182.87;4418780;32;34020;-82
2022/05/15 11:30:25;;;;;;;4.65;1.45;;;;;;;28.73;24.65;100185.69;4430443;32;34145;-84
2022/05/15 11:32:52;;;;;;;3.15;1.35;;;;;;;28.47;23.82;100174.72;4414944;32;33993;-83
2022/05/15 11:35:22;;;;;;;6.00;1.55;;;;;;;28.50;24.04;100175.53;4433701;32;33721;-82
2022/05/15 11:37:56;;;;;;;4.68;1.50;;;;;;;28.41;24.63;100168.63;4413261;32;31959;-84
2022/05/15 11:40:40;;;;;;;3.50;1.27;;;;;;;28.35;25.05;100175.87;4428697;32;33758;-82
2022/05/15 11:43:55;;;;;;;4.85;2.78;;;;;;;28.15;23.62;100161.22;4402869;32;31941;-81
2022/05/15 11:46:46;;;;;;;3.22;1.20;;;;;;;27.98;24.22;100166.03;4425972;32;33819;-80
2022/05/15 11:49:16;;;;;;;3.55;1.25;;;;;;;27.91;23.82;100159.06;4430787;32;34012;-82
2022/05/15 11:52:14;;;;;;;3.55;1.20;;;;;;;27.50;24.81;100164.28;4429436;32;33485;-82
2022/05/15 11:54:47;;;;;;;2.75;1.50;;;;;;;27.98;24.35;100166.03;4418887;32;33154;-82
2022/05/15 11:57:32;;;;;;;5.25;1.70;;;;;;;28.70;24.64;100166.22;4428250;32;34741;-82
2022/05/15 12:00:02;;;;;;;4.22;1.37;;;;;;;28.91;23.23;100160.34;4431889;32;34330;-82
2022/05/15 12:02:30;;;;;;;4.12;1.60;;;;;;;29.10;23.70;100163.44;4417761;32;34700;-81
2022/05/15 12:05:09;;;;;;;4.50;1.42;;;;;;;28.73;23.93;100161.69;4424627;32;33649;-81
2022/05/15 12:07:53;;;;;;;3.10;1.17;;;;;;;28.32;24.22;100155.50;4414763;32;34373;-81